Time;durP1;ratioP1;P1;durP2;ratioP2;P2;SDS_P1;SDS_P2;PMS_P1;PMS_P2;Temp;Humidity;BMP_temperature;BMP_pressure;BME280_temperature;BME280_humidity;BME280_pressure;Samples;Min_cycle;Max_cycle;Signal;HPM_P1;HPM_P2
2022/08/25 00:00:16;;;;;;;12.05;8.63;;;;;;;;;;4997047;28;20050;-85
2022/08/25 00:03:00;;;;;;;12.05;9.02;;;;;;;;;;4996878;28;20046;-85
2022/08/25 00:05:46;;;;;;;14.30;8.80;;;;;;;;;;4996936;28;20046;-85
2022/08/25 00:08:33;;;;;;;10.43;8.48;;;;;;;;;;4988634;28;20050;-85
2022/08/25 00:11:22;;;;;;;13.20;8.93;;;;;;;;;;4996550;28;20038;-85
2022/08/25 00:14:21;;;;;;;11.93;8.70;;;;;;;;;;4996463;28;20054;-85
2022/08/25 00:17:06;;;;;;;21.45;8.75;;;;;;;;;;5002634;28;20505;-85
2022/08/25 00:19:52;;;;;;;12.52;9.35;;;;;;;;;;4996410;28;20047;-85
2022/08/25 00:22:38;;;;;;;11.82;8.90;;;;;;;;;;4996304;28;20050;-85
2022/08/25 00:25:23;;;;;;;18.27;8.57;;;;;;;;;;5002949;28;20050;-85
2022/08/25 00:28:09;;;;;;;13.75;8.95;;;;;;;;;;4996445;28;20043;-85
2022/08/25 00:30:54;;;;;;;11.82;8.73;;;;;;;;;;4996101;28;20050;-85
2022/08/25 00:33:41;;;;;;;11.90;8.77;;;;;;;;;;4996481;28;20043;-85
2022/08/25 00:36:27;;;;;;;13.82;8.38;;;;;;;;;;5002914;28;20405;-85
2022/08/25 00:39:13;;;;;;;13.15;8.85;;;;;;;;;;4995938;28;20038;-85
2022/08/25 00:41:59;;;;;;;12.63;8.10;;;;;;;;;;4995900;28;20055;-85
2022/08/25 00:44:44;;;;;;;12.68;9.00;;;;;;;;;;4995751;28;20035;-84
2022/08/25 00:47:30;;;;;;;15.30;8.55;;;;;;;;;;4996027;28;20046;-84
2022/08/25 00:50:16;;;;;;;11.70;8.32;;;;;;;;;;5003837;28;20058;-85
2022/08/25 00:53:03;;;;;;;10.88;8.40;;;;;;;;;;4995563;28;20398;-85
2022/08/25 00:55:49;;;;;;;13.75;8.13;;;;;;;;;;5002350;28;20046;-85
2022/08/25 00:58:34;;;;;;;12.93;8.15;;;;;;;;;;5000513;28;20406;-85
2022/08/25 01:01:20;;;;;;;13.75;8.45;;;;;;;;;;5002334;28;20482;-85
2022/08/25 01:04:06;;;;;;;13.15;8.88;;;;;;;;;;5002358;28;20062;-85
2022/08/25 01:06:51;;;;;;;11.70;8.27;;;;;;;;;;4995531;28;20397;-85
2022/08/25 01:09:37;;;;;;;12.63;8.85;;;;;;;;;;4995992;28;20054;-85
2022/08/25 01:12:22;;;;;;;10.40;7.85;;;;;;;;;;4994925;28;20046;-85
2022/08/25 01:15:11;;;;;;;12.63;8.25;;;;;;;;;;5002342;28;20058;-85
2022/08/25 01:17:57;;;;;;;13.07;9.05;;;;;;;;;;4995906;28;20050;-86
2022/08/25 01:20:45;;;;;;;10.43;8.00;;;;;;;;;;4995255;28;20042;-85
2022/08/25 01:23:31;;;;;;;11.70;7.88;;;;;;;;;;5002056;28;20393;-85
2022/08/25 01:26:21;;;;;;;11.43;8.38;;;;;;;;;;4995352;28;20051;-85
2022/08/25 01:29:21;;;;;;;15.27;8.85;;;;;;;;;;5006209;28;20406;-85
2022/08/25 01:32:10;;;;;;;11.70;7.47;;;;;;;;;;5008873;28;20042;-82
2022/08/25 01:34:55;;;;;;;9.40;7.68;;;;;;;;;;5004543;28;20042;-85
2022/08/25 01:37:41;;;;;;;12.23;7.97;;;;;;;;;;4996700;28;20042;-85
2022/08/25 01:40:26;;;;;;;14.43;9.13;;;;;;;;;;4995057;28;20050;-85
2022/08/25 01:43:16;;;;;;;13.23;9.20;;;;;;;;;;5001723;28;20473;-85
2022/08/25 01:46:01;;;;;;;10.00;7.63;;;;;;;;;;5001549;28;20054;-85
2022/08/25 01:48:47;;;;;;;11.77;7.97;;;;;;;;;;4994639;28;20050;-85
2022/08/25 01:51:39;;;;;;;14.95;7.72;;;;;;;;;;4986805;28;20046;-85
2022/08/25 01:54:25;;;;;;;12.20;8.10;;;;;;;;;;5001154;28;20050;-85
2022/08/25 01:57:11;;;;;;;11.60;7.88;;;;;;;;;;4994843;28;20059;-85
2022/08/25 01:59:57;;;;;;;9.80;7.80;;;;;;;;;;4994892;28;20046;-85
2022/08/25 02:02:42;;;;;;;25.80;15.75;;;;;;;;;;5000720;28;20046;-85
2022/08/25 02:05:28;;;;;;;11.77;8.82;;;;;;;;;;5001530;28;20061;-85
2022/08/25 02:08:14;;;;;;;149.00;93.97;;;;;;;;;;5000764;28;20047;-85
2022/08/25 02:10:59;;;;;;;42.90;28.60;;;;;;;;;;5001154;28;20046;-85
2022/08/25 02:13:44;;;;;;;18.77;14.02;;;;;;;;;;4986494;28;20058;-85
2022/08/25 02:16:33;;;;;;;14.32;8.85;;;;;;;;;;4994400;28;20054;-85
2022/08/25 02:19:22;;;;;;;13.90;8.63;;;;;;;;;;5001217;28;20457;-85
2022/08/25 02:22:09;;;;;;;14.05;8.65;;;;;;;;;;4994240;28;20058;-85
2022/08/25 02:24:54;;;;;;;13.35;8.57;;;;;;;;;;4993752;28;20046;-86
2022/08/25 02:27:40;;;;;;;10.82;8.48;;;;;;;;;;4995860;28;20153;-85
2022/08/25 02:30:26;;;;;;;14.45;9.10;;;;;;;;;;4994519;28;20053;-85
2022/08/25 02:33:11;;;;;;;13.85;8.55;;;;;;;;;;4994326;28;20047;-85
2022/08/25 02:36:00;;;;;;;12.48;8.88;;;;;;;;;;4979695;28;20050;-85
2022/08/25 02:38:46;;;;;;;15.27;9.35;;;;;;;;;;5000826;28;20042;-85
2022/08/25 02:41:32;;;;;;;12.60;8.82;;;;;;;;;;4990334;28;20042;-86
2022/08/25 02:44:17;;;;;;;14.00;8.82;;;;;;;;;;4985498;28;20043;-85
2022/08/25 02:47:03;;;;;;;16.05;8.88;;;;;;;;;;4993230;28;20394;-85
2022/08/25 02:49:48;;;;;;;12.82;8.93;;;;;;;;;;4986500;28;20054;-85
2022/08/25 02:52:35;;;;;;;16.52;9.88;;;;;;;;;;4979686;28;20042;-86
2022/08/25 02:55:22;;;;;;;13.45;9.23;;;;;;;;;;4988032;28;20047;-86
2022/08/25 02:58:08;;;;;;;13.32;9.20;;;;;;;;;;4988110;28;20046;-86
2022/08/25 03:00:54;;;;;;;12.60;9.00;;;;;;;;;;4974437;28;20047;-86
2022/08/25 03:03:41;;;;;;;14.30;9.25;;;;;;;;;;4976044;28;20051;-85
2022/08/25 03:06:26;;;;;;;12.70;9.27;;;;;;;;;;4981205;28;20047;-86
2022/08/25 03:09:12;;;;;;;17.17;9.38;;;;;;;;;;4985138;28;20051;-85
2022/08/25 03:11:57;;;;;;;16.90;8.75;;;;;;;;;;4992567;28;20054;-85
2022/08/25 03:14:42;;;;;;;13.63;8.73;;;;;;;;;;4996655;28;20042;-85
2022/08/25 03:17:29;;;;;;;16.08;9.40;;;;;;;;;;4995768;28;20050;-85
2022/08/25 03:20:14;;;;;;;18.92;9.05;;;;;;;;;;4992915;28;20042;-85
2022/08/25 03:23:01;;;;;;;14.02;9.43;;;;;;;;;;5000140;28;20058;-85
2022/08/25 03:28:54;;;;;;;14.73;9.83;;;;;;;;;;5002632;28;20051;-86
2022/08/25 03:31:43;;;;;;;23.73;9.82;;;;;;;;;;4996373;28;20498;-84
2022/08/25 03:34:30;;;;;;;19.60;9.98;;;;;;;;;;4997311;28;20046;-84
2022/08/25 03:37:15;;;;;;;14.75;9.55;;;;;;;;;;4998854;28;20481;-84
2022/08/25 03:40:04;;;;;;;16.23;10.27;;;;;;;;;;4996761;28;20401;-85
2022/08/25 03:42:50;;;;;;;17.65;11.00;;;;;;;;;;4997509;28;20043;-85
2022/08/25 03:45:42;;;;;;;19.67;10.82;;;;;;;;;;4997080;28;20043;-85
2022/08/25 03:48:28;;;;;;;16.27;10.13;;;;;;;;;;4997328;28;20167;-85
2022/08/25 03:51:34;;;;;;;17.05;11.23;;;;;;;;;;4988993;28;20046;-85
2022/08/25 03:54:22;;;;;;;17.55;10.68;;;;;;;;;;4996824;28;20046;-85
2022/08/25 03:57:08;;;;;;;20.55;11.25;;;;;;;;;;5003362;28;20054;-85
2022/08/25 03:59:53;;;;;;;16.55;10.48;;;;;;;;;;4998384;28;20054;-85
2022/08/25 04:02:39;;;;;;;20.40;10.95;;;;;;;;;;4996947;28;20054;-85
2022/08/25 04:05:24;;;;;;;17.17;11.00;;;;;;;;;;5003527;28;20042;-85
2022/08/25 04:08:09;;;;;;;17.90;11.65;;;;;;;;;;4999050;28;20478;-86
2022/08/25 04:10:55;;;;;;;18.02;11.65;;;;;;;;;;5007881;28;20050;-86
2022/08/25 04:13:41;;;;;;;16.33;11.30;;;;;;;;;;5009624;28;20043;-83
2022/08/25 04:16:30;;;;;;;19.10;11.23;;;;;;;;;;5004885;28;20046;-85
2022/08/25 04:19:15;;;;;;;21.13;12.02;;;;;;;;;;5005634;28;20402;-86
2022/08/25 04:22:01;;;;;;;17.70;11.90;;;;;;;;;;4981124;28;20050;-86
2022/08/25 04:24:46;;;;;;;16.55;11.05;;;;;;;;;;4977289;28;20051;-86
2022/08/25 04:27:32;;;;;;;17.75;12.07;;;;;;;;;;4977051;28;20391;-86
2022/08/25 04:30:17;;;;;;;20.35;11.85;;;;;;;;;;4976957;28;20051;-86
2022/08/25 04:33:03;;;;;;;20.17;11.73;;;;;;;;;;4962571;28;20422;-86
2022/08/25 04:35:49;;;;;;;19.08;12.63;;;;;;;;;;4983040;28;20054;-86
2022/08/25 04:38:34;;;;;;;23.75;13.02;;;;;;;;;;4993980;28;20046;-85
2022/08/25 04:41:23;;;;;;;21.40;13.02;;;;;;;;;;4980592;28;20474;-86
2022/08/25 04:44:08;;;;;;;18.88;12.70;;;;;;;;;;4976362;28;20043;-86
2022/08/25 04:46:54;;;;;;;59.67;37.55;;;;;;;;;;4976266;28;20043;-87
2022/08/25 04:49:39;;;;;;;28.45;18.15;;;;;;;;;;4995841;28;20417;-86
2022/08/25 04:52:25;;;;;;;23.27;14.55;;;;;;;;;;4995937;28;20050;-87
2022/08/25 04:55:10;;;;;;;17.30;12.77;;;;;;;;;;4981482;28;20050;-86
2022/08/25 04:57:56;;;;;;;19.73;14.48;;;;;;;;;;4997038;28;20390;-88
2022/08/25 05:00:42;;;;;;;20.88;12.95;;;;;;;;;;4995894;28;20051;-88
2022/08/25 05:03:27;;;;;;;19.88;12.73;;;;;;;;;;4995582;28;20050;-88
2022/08/25 05:06:13;;;;;;;22.77;13.18;;;;;;;;;;4987041;28;20050;-87
2022/08/25 05:09:00;;;;;;;17.40;12.07;;;;;;;;;;4995554;28;20054;-86
2022/08/25 05:11:45;;;;;;;18.15;11.93;;;;;;;;;;5000530;28;20042;-85
2022/08/25 05:14:31;;;;;;;22.98;12.98;;;;;;;;;;4982227;28;20406;-86
2022/08/25 05:17:16;;;;;;;19.17;12.30;;;;;;;;;;4975791;28;20051;-85
2022/08/25 05:20:02;;;;;;;18.58;12.50;;;;;;;;;;4985787;28;20050;-84
2022/08/25 05:22:48;;;;;;;21.70;12.60;;;;;;;;;;4994307;28;20489;-85
2022/08/25 05:25:33;;;;;;;16.77;12.15;;;;;;;;;;4980320;28;20038;-85
2022/08/25 05:28:20;;;;;;;16.33;11.32;;;;;;;;;;4990154;28;20050;-86
2022/08/25 05:31:07;;;;;;;18.88;12.35;;;;;;;;;;4975473;28;20046;-85
2022/08/25 05:33:54;;;;;;;20.05;12.50;;;;;;;;;;4983694;28;20050;-86
2022/08/25 05:36:42;;;;;;;18.10;12.18;;;;;;;;;;4995514;28;20394;-85
2022/08/25 05:39:31;;;;;;;21.33;12.55;;;;;;;;;;4994403;28;20042;-86
2022/08/25 05:42:15;;;;;;;20.80;13.57;;;;;;;;;;4989906;28;20035;-86
2022/08/25 05:45:01;;;;;;;20.73;12.75;;;;;;;;;;4989251;28;20043;-85
2022/08/25 05:47:47;;;;;;;19.42;12.48;;;;;;;;;;4995784;28;20042;-86
2022/08/25 05:50:33;;;;;;;16.95;12.73;;;;;;;;;;4994737;28;20046;-86
2022/08/25 05:53:20;;;;;;;20.00;13.55;;;;;;;;;;4994147;28;20046;-85
2022/08/25 05:56:06;;;;;;;17.05;11.75;;;;;;;;;;4991850;28;20038;-86
2022/08/25 05:58:52;;;;;;;19.75;12.63;;;;;;;;;;4992582;28;20078;-87
2022/08/25 06:04:41;;;;;;;18.90;12.63;;;;;;;;;;4994292;28;20042;-86
2022/08/25 06:07:27;;;;;;;15.80;11.73;;;;;;;;;;4999737;28;20052;-87
2022/08/25 06:10:13;;;;;;;16.00;11.77;;;;;;;;;;4994442;28;20043;-87
2022/08/25 06:12:59;;;;;;;21.05;13.20;;;;;;;;;;4994364;28;20054;-86
2022/08/25 06:15:44;;;;;;;20.23;12.80;;;;;;;;;;4994579;28;20050;-87
2022/08/25 06:18:30;;;;;;;18.27;12.23;;;;;;;;;;4980068;28;20054;-86
2022/08/25 06:21:17;;;;;;;17.70;12.25;;;;;;;;;;4979539;28;20034;-87
2022/08/25 06:24:03;;;;;;;19.08;11.93;;;;;;;;;;4994640;28;20050;-87
2022/08/25 06:26:48;;;;;;;17.50;11.77;;;;;;;;;;4994138;28;20038;-87
2022/08/25 06:29:33;;;;;;;17.75;12.38;;;;;;;;;;4994625;28;20054;-86
2022/08/25 06:32:19;;;;;;;17.48;11.85;;;;;;;;;;4979598;28;20050;-88
2022/08/25 06:35:07;;;;;;;20.95;12.18;;;;;;;;;;4986043;28;20478;-87
2022/08/25 06:37:53;;;;;;;18.63;12.05;;;;;;;;;;4994595;28;20055;-87
2022/08/25 06:40:39;;;;;;;16.77;11.93;;;;;;;;;;5000733;28;20050;-86
2022/08/25 06:43:24;;;;;;;17.48;11.90;;;;;;;;;;5001281;28;20050;-85
2022/08/25 06:46:20;;;;;;;18.02;12.48;;;;;;;;;;4994229;28;20054;-86
2022/08/25 06:49:06;;;;;;;18.33;11.95;;;;;;;;;;4998100;28;20054;-87
2022/08/25 06:51:52;;;;;;;20.23;12.77;;;;;;;;;;5002639;28;20054;-85
2022/08/25 06:54:38;;;;;;;21.85;13.40;;;;;;;;;;5005792;28;20039;-86
2022/08/25 06:57:23;;;;;;;20.73;13.30;;;;;;;;;;4997471;28;20038;-86
2022/08/25 07:00:10;;;;;;;21.63;14.07;;;;;;;;;;4993685;28;20062;-85
2022/08/25 07:02:57;;;;;;;22.52;13.48;;;;;;;;;;4994013;28;20050;-85
2022/08/25 07:05:50;;;;;;;21.20;13.73;;;;;;;;;;4994019;28;20390;-85
2022/08/25 07:08:36;;;;;;;19.80;12.80;;;;;;;;;;4972543;28;20050;-84
2022/08/25 07:11:22;;;;;;;20.58;13.07;;;;;;;;;;4996735;28;20054;-83
2022/08/25 07:14:10;;;;;;;17.00;12.52;;;;;;;;;;4997548;28;20047;-84
2022/08/25 07:16:56;;;;;;;19.33;12.73;;;;;;;;;;4997540;28;20050;-85
2022/08/25 07:19:42;;;;;;;19.08;12.23;;;;;;;;;;5004511;28;20466;-85
2022/08/25 07:22:27;;;;;;;21.70;12.88;;;;;;;;;;4997625;28;20046;-85
2022/08/25 07:25:13;;;;;;;18.48;12.65;;;;;;;;;;4997394;28;20038;-84
2022/08/25 07:27:59;;;;;;;20.67;12.82;;;;;;;;;;4997638;28;20054;-84
2022/08/25 07:30:45;;;;;;;19.70;12.57;;;;;;;;;;4996871;28;20046;-83
2022/08/25 07:35:13;;;;;;;20.63;13.00;;;;;;;;;;4997754;28;20478;-87
2022/08/25 07:36:44;;;;;;;21.85;12.20;;;;;;;;;;4997251;28;20050;-84
2022/08/25 07:39:30;;;;;;;21.33;13.25;;;;;;;;;;4997392;28;20047;-85
2022/08/25 07:42:15;;;;;;;22.60;12.77;;;;;;;;;;5003813;28;20398;-86
2022/08/25 07:45:02;;;;;;;19.98;13.18;;;;;;;;;;4996776;28;20046;-85
2022/08/25 07:47:49;;;;;;;20.10;12.25;;;;;;;;;;4997439;28;20054;-85
2022/08/25 07:50:37;;;;;;;18.17;12.15;;;;;;;;;;4996594;28;20050;-84
2022/08/25 07:53:23;;;;;;;17.17;11.85;;;;;;;;;;4997050;28;20046;-85
2022/08/25 07:56:11;;;;;;;16.42;12.13;;;;;;;;;;4997187;28;20043;-85
2022/08/25 07:58:56;;;;;;;18.30;12.77;;;;;;;;;;4996603;28;20050;-85
2022/08/25 08:01:41;;;;;;;22.52;12.57;;;;;;;;;;4996416;28;20046;-86
2022/08/25 08:04:26;;;;;;;17.05;10.82;;;;;;;;;;4982201;28;20042;-84
2022/08/25 08:07:15;;;;;;;17.83;11.40;;;;;;;;;;4997029;28;20054;-84
2022/08/25 08:10:02;;;;;;;17.20;10.80;;;;;;;;;;4996616;28;20482;-83
2022/08/25 08:12:48;;;;;;;14.57;10.50;;;;;;;;;;5002424;28;20050;-84
2022/08/25 08:15:35;;;;;;;24.20;16.77;;;;;;;;;;4997099;28;20046;-84
2022/08/25 08:18:20;;;;;;;22.75;13.55;;;;;;;;;;5003192;28;20046;-85
2022/08/25 08:21:31;;;;;;;16.05;12.40;;;;;;;;;;4995498;28;20042;-85
2022/08/25 08:24:16;;;;;;;15.02;11.63;;;;;;;;;;5003138;28;20046;-83
2022/08/25 08:27:02;;;;;;;100.60;81.22;;;;;;;;;;5002416;28;20050;-84
2022/08/25 08:29:48;;;;;;;453.83;381.48;;;;;;;;;;4996121;28;20395;-84
2022/08/25 08:32:34;;;;;;;17.77;11.35;;;;;;;;;;4996236;28;20485;-84
2022/08/25 08:35:19;;;;;;;18.73;13.43;;;;;;;;;;4996156;28;20478;-84
2022/08/25 08:38:05;;;;;;;22.55;16.27;;;;;;;;;;4996299;28;20054;-85
2022/08/25 08:44:49;;;;;;;24.90;12.82;;;;;;;;;;4995926;28;20481;-86
2022/08/25 08:48:02;;;;;;;20.33;13.70;;;;;;;;;;4995650;28;20038;-82
2022/08/25 08:51:20;;;;;;;19.33;13.38;;;;;;;;;;5002471;28;20050;-83
2022/08/25 08:54:12;;;;;;;19.65;10.38;;;;;;;;;;4995526;28;20043;-81
2022/08/25 08:57:16;;;;;;;17.25;12.15;;;;;;;;;;4995921;28;20046;-81
2022/08/25 09:00:05;;;;;;;19.83;11.43;;;;;;;;;;4996828;28;20054;-81
2022/08/25 09:03:11;;;;;;;17.95;11.43;;;;;;;;;;4995403;28;20054;-81
2022/08/25 09:06:01;;;;;;;16.75;12.00;;;;;;;;;;4995820;28;20046;-82
2022/08/25 09:08:47;;;;;;;15.55;10.95;;;;;;;;;;4995137;28;20050;-81
2022/08/25 09:11:55;;;;;;;15.13;11.52;;;;;;;;;;5019045;28;20049;-82
2022/08/25 09:15:14;;;;;;;17.40;11.65;;;;;;;;;;5020257;28;20045;-83
2022/08/25 09:18:25;;;;;;;17.52;12.43;;;;;;;;;;5006717;28;20046;-82
2022/08/25 09:21:18;;;;;;;20.67;12.30;;;;;;;;;;5021324;28;20046;-82
2022/08/25 09:24:08;;;;;;;17.10;12.18;;;;;;;;;;5021510;28;20428;-83
2022/08/25 09:27:08;;;;;;;19.42;12.27;;;;;;;;;;5022019;28;20042;-81
2022/08/25 09:30:00;;;;;;;18.67;12.40;;;;;;;;;;5024283;28;20062;-82
2022/08/25 09:32:52;;;;;;;18.48;12.50;;;;;;;;;;5023884;28;20042;-79
2022/08/25 09:35:39;;;;;;;21.02;12.68;;;;;;;;;;5016460;28;20034;-82
2022/08/25 09:38:27;;;;;;;16.58;11.93;;;;;;;;;;5021259;28;20049;-82
2022/08/25 09:41:16;;;;;;;20.38;12.48;;;;;;;;;;5014261;28;20038;-81
2022/08/25 09:44:02;;;;;;;17.27;11.50;;;;;;;;;;5014369;28;20053;-81
2022/08/25 09:47:03;;;;;;;16.40;11.82;;;;;;;;;;5020760;28;20046;-82
2022/08/25 09:50:00;;;;;;;17.05;12.32;;;;;;;;;;5014142;28;20041;-80
2022/08/25 09:52:45;;;;;;;93.43;26.00;;;;;;;;;;5021180;28;20042;-82
2022/08/25 09:55:33;;;;;;;17.70;11.70;;;;;;;;;;5011232;28;20046;-82
2022/08/25 09:58:21;;;;;;;26.65;13.55;;;;;;;;;;4974631;28;20047;-82
2022/08/25 10:01:15;;;;;;;19.27;12.68;;;;;;;;;;4975191;28;20051;-81
2022/08/25 10:04:03;;;;;;;16.88;12.10;;;;;;;;;;4981487;28;20410;-82
2022/08/25 10:06:49;;;;;;;17.58;11.68;;;;;;;;;;4975197;28;20047;-81
2022/08/25 10:09:41;;;;;;;16.50;11.70;;;;;;;;;;4974779;28;20242;-81
2022/08/25 10:12:37;;;;;;;23.65;12.32;;;;;;;;;;4988059;28;20047;-82
2022/08/25 10:15:26;;;;;;;19.98;11.77;;;;;;;;;;4992175;28;20050;-83
2022/08/25 10:18:25;;;;;;;15.40;11.13;;;;;;;;;;4984735;28;20038;-79
2022/08/25 10:21:14;;;;;;;17.70;11.70;;;;;;;;;;4988452;28;20046;-81
2022/08/25 10:24:01;;;;;;;16.77;11.27;;;;;;;;;;4984602;28;20049;-85
2022/08/25 10:27:19;;;;;;;18.33;12.30;;;;;;;;;;4984579;28;20038;-80
2022/08/25 10:30:11;;;;;;;15.77;11.52;;;;;;;;;;5000847;28;20046;-82
2022/08/25 10:33:31;;;;;;;24.65;12.82;;;;;;;;;;4993791;28;20042;-81
2022/08/25 10:36:22;;;;;;;30.83;14.23;;;;;;;;;;5001121;28;20046;-80
2022/08/25 10:39:22;;;;;;;17.35;11.98;;;;;;;;;;5000217;28;20494;-81
2022/08/25 10:42:18;;;;;;;19.88;14.23;;;;;;;;;;5000574;28;20401;-82
2022/08/25 10:45:41;;;;;;;18.23;12.15;;;;;;;;;;5001661;28;20047;-82
2022/08/25 10:48:46;;;;;;;22.27;12.45;;;;;;;;;;4985905;28;20051;-80
2022/08/25 10:51:41;;;;;;;;;;;;;;;;;;4985603;28;20054;-81
2022/08/25 10:54:51;;;;;;;30.23;12.67;;;;;;;;;;4984760;28;19914;-81
2022/08/25 10:57:58;;;;;;;18.00;11.63;;;;;;;;;;4984868;28;20054;-81
2022/08/25 11:01:03;;;;;;;15.95;11.45;;;;;;;;;;4984614;28;20463;-81
2022/08/25 11:03:59;;;;;;;21.15;13.52;;;;;;;;;;4984840;28;20490;-81
2022/08/25 11:06:51;;;;;;;20.77;13.43;;;;;;;;;;4983835;28;20054;-82
2022/08/25 11:09:40;;;;;;;16.95;12.50;;;;;;;;;;4984814;28;20402;-82
2022/08/25 11:12:43;;;;;;;16.60;12.52;;;;;;;;;;4976835;28;20051;-82
2022/08/25 11:15:50;;;;;;;20.83;14.00;;;;;;;;;;4977926;28;20051;-82
2022/08/25 11:18:44;;;;;;;18.00;12.95;;;;;;;;;;4977468;28;20482;-82
2022/08/25 11:21:40;;;;;;;17.67;12.65;;;;;;;;;;4977463;28;20462;-82
2022/08/25 11:24:33;;;;;;;18.15;13.18;;;;;;;;;;4978452;28;20498;-81
2022/08/25 11:27:51;;;;;;;18.13;13.27;;;;;;;;;;4984351;28;20486;-81
2022/08/25 11:30:38;;;;;;;22.30;13.00;;;;;;;;;;4973316;28;20051;-82
2022/08/25 11:33:25;;;;;;;21.05;13.25;;;;;;;;;;4984469;28;20044;-81
2022/08/25 11:36:26;;;;;;;19.40;13.10;;;;;;;;;;4983902;28;20047;-82
2022/08/25 11:39:44;;;;;;;20.52;12.43;;;;;;;;;;4984349;28;20054;-81
2022/08/25 11:42:57;;;;;;;19.33;13.57;;;;;;;;;;4976974;28;20047;-82
2022/08/25 11:46:12;;;;;;;22.25;13.88;;;;;;;;;;4978022;28;20103;-80
2022/08/25 11:49:36;;;;;;;20.77;13.80;;;;;;;;;;4975698;28;20051;-80
2022/08/25 11:52:31;;;;;;;21.30;13.90;;;;;;;;;;4977433;28;20050;-82
2022/08/25 11:55:35;;;;;;;20.17;13.07;;;;;;;;;;4983673;28;20047;-83
2022/08/25 11:58:47;;;;;;;19.40;13.35;;;;;;;;;;4977370;28;20498;-82
2022/08/25 12:01:39;;;;;;;19.63;13.68;;;;;;;;;;4977486;28;20487;-83
2022/08/25 12:04:33;;;;;;;21.88;13.95;;;;;;;;;;4977121;28;20059;-81
2022/08/25 12:07:27;;;;;;;16.55;12.60;;;;;;;;;;4977148;28;20063;-81
2022/08/25 12:10:21;;;;;;;15.85;12.15;;;;;;;;;;4979487;28;20047;-81
2022/08/25 12:13:26;;;;;;;18.50;12.95;;;;;;;;;;4985916;28;20051;-80
2022/08/25 12:16:34;;;;;;;19.70;14.10;;;;;;;;;;4985173;28;20050;-79
2022/08/25 12:19:48;;;;;;;19.98;12.60;;;;;;;;;;4956176;28;20042;-81
2022/08/25 12:22:34;;;;;;;19.98;13.18;;;;;;;;;;4983645;28;20051;-81
2022/08/25 12:25:48;;;;;;;20.25;12.35;;;;;;;;;;4983257;28;20394;-80
2022/08/25 12:29:00;;;;;;;;;;;;;;;;;;4983906;28;20042;-81
2022/08/25 12:32:05;;;;;;;15.35;11.48;;;;;;;;;;4970563;28;19914;-80
2022/08/25 12:35:02;;;;;;;19.73;12.77;;;;;;;;;;4989343;28;20470;-79
2022/08/25 12:38:01;;;;;;;19.25;12.77;;;;;;;;;;4988455;28;20043;-78
2022/08/25 12:40:47;;;;;;;18.00;12.82;;;;;;;;;;4988957;28;20047;-81
2022/08/25 12:43:41;;;;;;;18.13;13.68;;;;;;;;;;4988883;28;20050;-81
2022/08/25 12:46:26;;;;;;;18.40;12.57;;;;;;;;;;4974029;28;20047;-83
2022/08/25 12:49:31;;;;;;;19.13;13.02;;;;;;;;;;4981543;28;20043;-81
2022/08/25 12:52:21;;;;;;;17.60;11.68;;;;;;;;;;4980195;28;20046;-81
2022/08/25 12:55:10;;;;;;;19.42;12.05;;;;;;;;;;4982894;28;20046;-81
2022/08/25 12:57:59;;;;;;;16.75;12.10;;;;;;;;;;4982790;28;20043;-82
2022/08/25 13:01:09;;;;;;;18.63;12.50;;;;;;;;;;4982227;28;20051;-83
2022/08/25 13:04:32;;;;;;;21.17;13.15;;;;;;;;;;4982533;28;20051;-82
2022/08/25 13:08:06;;;;;;;16.13;12.20;;;;;;;;;;4975354;28;20409;-82
2022/08/25 13:10:51;;;;;;;18.20;13.23;;;;;;;;;;4943186;28;20060;-83
2022/08/25 13:13:49;;;;;;;17.10;12.70;;;;;;;;;;4975643;28;20478;-82
2022/08/25 13:16:35;;;;;;;14.82;11.40;;;;;;;;;;4976350;28;20042;-80
2022/08/25 13:19:21;;;;;;;16.48;12.13;;;;;;;;;;4982226;28;20050;-81
2022/08/25 13:22:16;;;;;;;18.80;12.65;;;;;;;;;;4975456;28;20051;-82
2022/08/25 13:25:02;;;;;;;;;;;;;;;;;;4982345;28;20047;-81
2022/08/25 13:27:50;;;;;;;20.35;11.93;;;;;;;;;;4981776;28;19914;-82
2022/08/25 13:30:37;;;;;;;16.55;12.18;;;;;;;;;;4982008;28;20043;-81
2022/08/25 13:33:23;;;;;;;20.40;12.50;;;;;;;;;;4982094;28;20051;-82
2022/08/25 13:39:24;;;;;;;22.50;12.80;;;;;;;;;;4975828;28;20403;-81
2022/08/25 13:42:14;;;;;;;19.55;12.35;;;;;;;;;;4981177;28;20502;-81
2022/08/25 13:44:59;;;;;;;20.63;12.02;;;;;;;;;;4975978;28;20118;-81
2022/08/25 13:47:47;;;;;;;19.75;12.30;;;;;;;;;;4982050;28;20471;-81
2022/08/25 13:50:36;;;;;;;18.55;13.90;;;;;;;;;;4981542;28;20054;-81
2022/08/25 13:53:24;;;;;;;20.52;12.88;;;;;;;;;;4981806;28;20046;-81
2022/08/25 13:56:10;;;;;;;24.38;13.18;;;;;;;;;;4981462;28;20047;-80
2022/08/25 13:58:57;;;;;;;20.15;13.10;;;;;;;;;;4979292;28;20490;-79
2022/08/25 14:01:46;;;;;;;20.48;13.10;;;;;;;;;;4981441;28;20042;-81
2022/08/25 14:04:47;;;;;;;20.10;12.77;;;;;;;;;;4981552;28;20054;-79
2022/08/25 14:07:33;;;;;;;20.73;12.88;;;;;;;;;;4981689;28;20486;-81
2022/08/25 14:10:41;;;;;;;19.50;13.05;;;;;;;;;;4981260;28;20046;-82
2022/08/25 14:13:26;;;;;;;21.35;12.73;;;;;;;;;;4981510;28;20050;-81
2022/08/25 14:16:19;;;;;;;15.55;12.15;;;;;;;;;;4981020;28;20429;-81
2022/08/25 14:19:04;;;;;;;20.60;12.27;;;;;;;;;;4974152;28;20486;-81
2022/08/25 14:21:52;;;;;;;15.32;11.48;;;;;;;;;;4974750;28;20051;-81
2022/08/25 14:24:38;;;;;;;20.27;12.23;;;;;;;;;;4980940;28;20443;-82
2022/08/25 14:27:23;;;;;;;20.25;12.60;;;;;;;;;;4981045;28;20058;-80
2022/08/25 14:30:10;;;;;;;17.35;12.20;;;;;;;;;;4981112;28;20050;-82
2022/08/25 14:32:56;;;;;;;20.52;13.68;;;;;;;;;;4981176;28;20058;-80
2022/08/25 14:35:45;;;;;;;20.80;13.27;;;;;;;;;;4982014;28;20047;-83
2022/08/25 14:38:30;;;;;;;22.33;13.20;;;;;;;;;;4981154;28;20055;-80
2022/08/25 14:41:16;;;;;;;21.58;13.05;;;;;;;;;;4980919;28;20050;-81
2022/08/25 14:44:03;;;;;;;20.60;12.93;;;;;;;;;;4981104;28;20489;-81
2022/08/25 14:46:54;;;;;;;22.50;12.82;;;;;;;;;;4975090;28;20051;-80
2022/08/25 14:49:42;;;;;;;19.15;12.38;;;;;;;;;;4981262;28;20051;-80
2022/08/25 14:52:29;;;;;;;19.52;11.95;;;;;;;;;;4976780;28;20422;-79
2022/08/25 14:55:15;;;;;;;22.63;14.40;;;;;;;;;;4982936;28;20039;-78
2022/08/25 14:58:00;;;;;;;20.98;12.80;;;;;;;;;;4982622;28;20051;-79
2022/08/25 15:00:46;;;;;;;20.85;12.85;;;;;;;;;;4974585;28;20055;-78
2022/08/25 15:03:38;;;;;;;21.00;12.50;;;;;;;;;;4981109;28;20047;-79
2022/08/25 15:06:24;;;;;;;17.65;13.35;;;;;;;;;;4980654;28;20055;-78
2022/08/25 15:09:15;;;;;;;18.05;12.60;;;;;;;;;;4974593;28;20051;-78
2022/08/25 15:12:00;;;;;;;16.30;12.35;;;;;;;;;;4980760;28;20058;-79
2022/08/25 15:14:45;;;;;;;19.77;11.93;;;;;;;;;;4960162;28;20047;-79
2022/08/25 15:17:31;;;;;;;15.80;11.77;;;;;;;;;;4980606;28;20478;-80
2022/08/25 15:20:16;;;;;;;18.10;11.48;;;;;;;;;;4980532;28;20047;-78
2022/08/25 15:23:03;;;;;;;15.85;10.75;;;;;;;;;;4987345;28;20050;-79
2022/08/25 15:25:52;;;;;;;19.48;12.77;;;;;;;;;;4991453;28;20035;-80
2022/08/25 15:28:45;;;;;;;21.10;13.90;;;;;;;;;;4997577;28;20042;-80
2022/08/25 15:31:30;;;;;;;20.13;12.13;;;;;;;;;;4989341;28;20038;-79
2022/08/25 15:34:16;;;;;;;19.90;11.18;;;;;;;;;;5001431;28;20050;-82
2022/08/25 15:37:10;;;;;;;18.45;11.80;;;;;;;;;;4995484;28;20046;-79
2022/08/25 15:39:56;;;;;;;;;;;;;;;;;;5002160;28;20450;-77
2022/08/25 15:42:41;;;;;;;20.17;11.85;;;;;;;;;;4987383;28;19922;-78
2022/08/25 15:45:27;;;;;;;21.33;11.55;;;;;;;;;;4987420;28;20050;-80
2022/08/25 15:48:13;;;;;;;17.45;11.73;;;;;;;;;;5003509;28;20046;-81
2022/08/25 15:50:59;;;;;;;16.63;12.20;;;;;;;;;;5003895;28;20042;-80
2022/08/25 15:53:45;;;;;;;22.00;12.65;;;;;;;;;;5003350;28;20470;-81
2022/08/25 15:56:30;;;;;;;16.80;12.20;;;;;;;;;;5003549;28;20046;-79
2022/08/25 15:59:16;;;;;;;19.13;12.02;;;;;;;;;;5000534;28;20385;-81
2022/08/25 16:02:01;;;;;;;18.95;12.13;;;;;;;;;;4996373;28;20050;-83
2022/08/25 16:04:47;;;;;;;23.27;12.07;;;;;;;;;;5003754;28;20386;-82
2022/08/25 16:07:33;;;;;;;21.10;12.15;;;;;;;;;;4996857;28;20051;-81
2022/08/25 16:10:19;;;;;;;20.90;12.18;;;;;;;;;;5003632;28;20046;-82
2022/08/25 16:13:06;;;;;;;24.63;12.82;;;;;;;;;;4996782;28;20054;-80
2022/08/25 16:15:52;;;;;;;26.33;13.65;;;;;;;;;;5002931;28;20393;-81
2022/08/25 16:18:37;;;;;;;18.83;12.43;;;;;;;;;;5003319;28;20474;-81
2022/08/25 16:21:32;;;;;;;21.35;13.45;;;;;;;;;;5003298;28;20054;-80
2022/08/25 16:24:17;;;;;;;21.40;12.68;;;;;;;;;;4996580;28;20042;-81
2022/08/25 16:27:04;;;;;;;17.33;12.10;;;;;;;;;;5002994;28;20053;-81
2022/08/25 16:29:49;;;;;;;23.05;12.07;;;;;;;;;;4983148;28;20486;-82
2022/08/25 16:32:35;;;;;;;19.98;12.88;;;;;;;;;;4977254;28;20058;-80
2022/08/25 16:35:21;;;;;;;22.27;11.85;;;;;;;;;;4983830;28;20050;-80
2022/08/25 16:38:06;;;;;;;18.50;11.55;;;;;;;;;;4976748;28;20051;-81
2022/08/25 16:40:51;;;;;;;17.20;12.70;;;;;;;;;;4983057;28;20405;-79
2022/08/25 16:43:37;;;;;;;24.15;13.07;;;;;;;;;;4981773;28;20039;-81
2022/08/25 16:46:23;;;;;;;20.55;12.38;;;;;;;;;;4976666;28;20047;-81